createdAt,value
2022-10-05T00:02:06.110Z,15.482564
2022-10-05T00:07:07.830Z,16.649058
2022-10-05T00:12:09.757Z,15.680382
2022-10-05T00:17:11.380Z,16.527678
2022-10-05T00:22:12.819Z,15.97864
2022-10-05T00:27:14.483Z,15.946332
2022-10-05T00:32:16.147Z,16.492018
2022-10-05T00:37:17.779Z,16.724518
2022-10-05T00:42:19.665Z,16.536946
2022-10-05T00:47:21.340Z,16.591862
2022-10-05T00:52:23.069Z,17.589754
2022-10-05T00:57:24.880Z,16.987048
2022-10-05T01:02:26.796Z,16.381588
2022-10-05T01:07:28.492Z,16.101866
2022-10-05T01:12:30.432Z,17.20427
2022-10-05T01:17:32.153Z,15.55865
2022-10-05T01:22:33.902Z,15.821262
2022-10-05T01:27:35.672Z,15.6305
2022-10-05T01:32:37.399Z,16.07185
2022-10-05T01:37:39.134Z,15.432778
2022-10-05T01:42:41.097Z,16.133198
2022-10-05T01:47:42.851Z,16.14115
2022-10-05T01:52:44.410Z,15.666962
2022-10-05T01:57:46.152Z,15.171768
2022-10-05T02:02:47.618Z,15.523708
2022-10-05T02:07:49.382Z,15.493244
2022-10-05T02:12:51.042Z,15.551064
2022-10-05T02:17:53.541Z,16.406136
2022-10-05T02:22:54.975Z,16.306644
2022-10-05T02:27:56.624Z,16.399866
2022-10-05T02:32:58.102Z,15.531564
2022-10-05T02:37:59.607Z,15.73793
2022-10-05T02:43:01.263Z,15.879786
2022-10-05T02:48:02.832Z,15.622562
2022-10-05T02:53:04.329Z,15.547264
2022-10-05T02:58:05.972Z,14.522112
2022-10-05T03:03:07.417Z,14.900784
2022-10-05T03:08:09.186Z,14.44824
2022-10-05T03:13:10.971Z,15.075832
2022-10-05T03:18:12.481Z,15.279456
2022-10-05T03:23:13.947Z,15.436754
2022-10-05T03:28:15.673Z,15.179978
2022-10-05T03:33:17.291Z,14.513998
2022-10-05T03:38:18.734Z,13.579246
2022-10-05T03:43:20.398Z,14.002142
2022-10-05T03:48:21.919Z,13.735582
2022-10-05T03:53:23.444Z,14.462462
2022-10-05T03:58:24.891Z,14.126058
2022-10-05T04:03:26.364Z,13.626292
2022-10-05T04:08:27.826Z,14.12253
2022-10-05T04:13:29.594Z,14.863536
2022-10-05T04:18:31.069Z,15.090744
2022-10-05T04:23:32.803Z,15.229588
2022-10-05T04:28:34.687Z,15.64578
2022-10-05T04:33:36.546Z,15.228448
2022-10-05T04:38:38.341Z,15.699528
2022-10-05T04:43:40.311Z,16.500322
2022-10-05T04:48:42.087Z,16.736446
2022-10-05T04:53:43.777Z,17.269512
2022-10-05T04:58:45.287Z,17.276134
2022-10-05T05:03:46.954Z,17.973922
2022-10-05T05:08:49.106Z,18.074472
2022-10-05T05:13:50.751Z,18.16855
2022-10-05T05:18:52.206Z,18.491818
2022-10-05T05:23:53.760Z,19.20479
2022-10-05T05:28:55.232Z,19.616654
2022-10-05T05:33:56.687Z,19.355738
2022-10-05T05:38:58.239Z,19.506062
2022-10-05T05:44:00.070Z,20.294088
2022-10-05T05:49:01.920Z,19.826236
2022-10-05T05:54:03.451Z,20.915086
2022-10-05T05:59:04.885Z,21.55306
2022-10-05T06:04:06.300Z,21.264598
2022-10-05T06:09:07.758Z,21.471602
2022-10-05T06:14:09.441Z,22.118152
2022-10-05T06:19:10.914Z,22.055976
2022-10-05T06:24:12.380Z,22.245706
2022-10-05T06:29:13.934Z,21.921542
2022-10-05T06:34:15.528Z,22.540546
2022-10-05T06:39:17.099Z,23.181384
2022-10-05T06:44:18.856Z,23.929082
2022-10-05T06:49:20.335Z,24.285284
2022-10-05T06:54:21.918Z,24.707638
2022-10-05T06:59:23.474Z,24.881112
2022-10-05T07:04:24.996Z,24.72863
2022-10-05T07:09:26.527Z,25.133588
2022-10-05T07:14:28.299Z,25.66899
2022-10-05T07:19:29.802Z,25.76851
2022-10-05T07:24:31.573Z,26.462582
2022-10-05T07:29:33.333Z,26.677538
2022-10-05T07:34:35.076Z,26.441386
2022-10-05T07:39:59.261Z,27.345788
2022-10-05T07:45:01.999Z,27.077204
2022-10-05T07:50:03.624Z,26.749484
2022-10-05T07:55:05.260Z,27.216456
2022-10-05T08:00:07.044Z,28.301632
2022-10-05T08:05:08.788Z,28.175828
2022-10-05T08:10:10.543Z,28.568886
2022-10-05T08:15:13.062Z,27.623192
2022-10-05T08:20:14.771Z,28.65584
2022-10-05T08:25:16.503Z,28.164118
2022-10-05T08:30:18.369Z,28.288618
2022-10-05T08:35:20.109Z,28.65143
2022-10-05T08:40:21.841Z,29.670414
2022-10-05T08:45:23.811Z,29.89662
2022-10-05T08:50:25.552Z,29.883824
2022-10-05T08:55:27.277Z,30.71039
2022-10-05T09:00:29.406Z,28.866834
2022-10-05T09:05:31.166Z,30.54153
2022-10-05T09:10:32.977Z,30.46075
2022-10-05T09:15:35.492Z,30.368056
2022-10-05T09:20:37.280Z,30.3588
2022-10-05T09:25:39.070Z,30.037458
2022-10-05T09:30:40.968Z,31.039888
2022-10-05T09:35:42.632Z,30.468484
2022-10-05T09:40:44.353Z,29.58764
2022-10-05T09:45:46.946Z,30.496736
2022-10-05T09:50:48.429Z,30.895114
2022-10-05T09:55:49.933Z,31.070786
2022-10-05T10:00:59.435Z,30.719862
2022-10-05T10:06:10.885Z,31.031068
2022-10-05T10:11:12.380Z,31.449746
2022-10-05T10:16:14.212Z,30.93372
2022-10-05T10:21:15.732Z,31.317984
2022-10-05T10:26:17.247Z,31.486154
2022-10-05T10:31:18.925Z,30.921588
2022-10-05T10:36:20.522Z,30.93041
2022-10-05T10:41:22.021Z,31.02111
2022-10-05T10:46:23.791Z,31.536266
2022-10-05T10:51:25.326Z,31.686998
2022-10-05T10:56:26.798Z,31.397422
2022-10-05T11:01:28.329Z,31.863578
2022-10-05T11:06:29.878Z,31.31755
2022-10-05T11:11:31.551Z,32.062646
2022-10-05T11:16:34.001Z,31.895358
2022-10-05T11:21:35.541Z,31.746596
2022-10-05T11:26:36.998Z,31.596732
2022-10-05T11:31:38.565Z,31.2584
2022-10-05T11:36:40.175Z,31.641526
2022-10-05T11:41:41.793Z,31.31025
2022-10-05T11:46:43.583Z,31.348
2022-10-05T11:51:45.479Z,32.062224
2022-10-05T11:56:50.706Z,32.29109
2022-10-05T12:01:55.396Z,32.19993
2022-10-05T12:06:56.852Z,31.396118
2022-10-05T12:11:58.449Z,31.416854
2022-10-05T12:17:00.619Z,31.191068
2022-10-05T12:22:02.110Z,31.027974
2022-10-05T12:27:03.891Z,31.133682
2022-10-05T12:32:05.687Z,30.823154
2022-10-05T12:37:07.438Z,31.453044
2022-10-05T12:42:09.177Z,31.767114
2022-10-05T12:47:11.936Z,31.424792
2022-10-05T12:52:13.840Z,31.042982
2022-10-05T12:57:15.624Z,30.727584
2022-10-05T13:02:17.531Z,31.032832
2022-10-05T13:07:19.288Z,30.593636
2022-10-05T13:12:20.968Z,30.067244
2022-10-05T13:17:22.882Z,30.596704
2022-10-05T13:22:24.597Z,30.472
2022-10-05T13:27:26.302Z,31.200566
2022-10-05T13:32:28.036Z,30.038992
2022-10-05T13:37:29.693Z,30.690728
2022-10-05T13:42:31.331Z,30.555644
2022-10-05T13:47:34.137Z,29.84013
2022-10-05T13:52:35.884Z,29.70925
2022-10-05T13:57:37.566Z,29.666642
2022-10-05T14:02:39.258Z,29.51834
2022-10-05T14:07:41.007Z,29.532696
2022-10-05T14:12:42.642Z,30.57308
2022-10-05T14:17:44.748Z,29.921344
2022-10-05T14:22:46.168Z,29.161702
2022-10-05T14:27:47.923Z,29.599988
2022-10-05T14:32:49.580Z,29.018026
2022-10-05T14:37:51.114Z,29.172964
2022-10-05T14:42:52.718Z,28.907
2022-10-05T14:47:54.451Z,28.632676
2022-10-05T14:52:55.962Z,28.964834
2022-10-05T14:57:57.433Z,28.8591
2022-10-05T15:02:58.969Z,28.878314
2022-10-05T15:08:00.398Z,28.890676
2022-10-05T15:13:02.064Z,28.207378
2022-10-05T15:18:04.043Z,28.182002
2022-10-05T15:23:05.684Z,28.170292
2022-10-05T15:28:07.479Z,27.78406
2022-10-05T15:33:09.367Z,27.628254
2022-10-05T15:38:11.149Z,27.399606
2022-10-05T15:43:12.883Z,27.274928
2022-10-05T15:48:15.372Z,27.153126
2022-10-05T15:53:17.093Z,26.953816
2022-10-05T15:58:18.825Z,26.914058
2022-10-05T16:03:20.653Z,27.121754
2022-10-05T16:08:22.653Z,26.66667
2022-10-05T16:13:24.628Z,26.439352
2022-10-05T16:18:27.305Z,26.566472
2022-10-05T16:23:28.936Z,26.400298
2022-10-05T16:28:30.712Z,26.260856
2022-10-05T16:33:32.519Z,26.001718
2022-10-05T16:38:34.291Z,25.356836
2022-10-05T16:43:35.821Z,25.801566
2022-10-05T16:48:37.760Z,25.827416
2022-10-05T16:53:39.521Z,25.907708
2022-10-05T16:58:41.256Z,25.525018
2022-10-05T17:03:43.169Z,25.611564
2022-10-05T17:08:45.047Z,25.30082
2022-10-05T17:13:46.774Z,25.03643
2022-10-05T17:18:48.439Z,25.070856
2022-10-05T17:23:49.923Z,25.201992
2022-10-05T17:28:51.542Z,24.615352
2022-10-05T17:33:53.157Z,24.989208
2022-10-05T17:38:54.905Z,24.68533
2022-10-05T17:43:56.637Z,24.733882
2022-10-05T17:48:58.438Z,24.29975
2022-10-05T17:53:59.935Z,24.579202
2022-10-05T17:59:01.874Z,24.377924
2022-10-05T18:04:03.684Z,23.959438
2022-10-05T18:09:05.398Z,23.686472
2022-10-05T18:14:07.134Z,23.75778
2022-10-05T18:19:08.944Z,23.764836
2022-10-05T18:24:10.690Z,23.462492
2022-10-05T18:29:12.510Z,23.3389
2022-10-05T18:34:13.980Z,22.961082
2022-10-05T18:39:15.809Z,23.225024
2022-10-05T18:44:17.457Z,23.00213
2022-10-05T18:49:19.632Z,22.901742
2022-10-05T18:54:21.358Z,22.682376
2022-10-05T18:59:23.134Z,22.271638
2022-10-05T19:04:25.072Z,22.041674
2022-10-05T19:09:26.792Z,21.363276
2022-10-05T19:14:28.466Z,21.745124
2022-10-05T19:19:33.502Z,22.08108
2022-10-05T19:24:35.440Z,21.67387
2022-10-05T19:29:37.089Z,21.908054
2022-10-05T19:34:38.573Z,20.694906
2022-10-05T19:39:40.225Z,20.9538
2022-10-05T19:44:41.687Z,21.06503
2022-10-05T19:49:43.565Z,20.282038
2022-10-05T19:54:45.257Z,20.447546
2022-10-05T19:59:46.889Z,20.838852
2022-10-05T20:04:48.492Z,20.398112
2022-10-05T20:09:50.397Z,20.218098
2022-10-05T20:14:54.994Z,20.025858
2022-10-05T20:19:59.071Z,19.87031
2022-10-05T20:25:00.485Z,19.989478
2022-10-05T20:30:02.124Z,19.568604
2022-10-05T20:35:03.628Z,19.620046
2022-10-05T20:40:05.408Z,19.290604
2022-10-05T20:45:06.857Z,19.450386
2022-10-05T20:50:08.516Z,19.243572
2022-10-05T20:55:10.044Z,19.009646
2022-10-05T21:00:11.963Z,19.393706
2022-10-05T21:05:13.758Z,19.570436
2022-10-05T21:10:15.564Z,19.651392
2022-10-05T21:15:17.420Z,19.181776
2022-10-05T21:20:19.362Z,19.166578
2022-10-05T21:25:21.124Z,19.192876
2022-10-05T21:30:23.011Z,18.697858
2022-10-05T21:35:24.962Z,18.485996
2022-10-05T21:40:26.691Z,18.97043
2022-10-05T21:45:28.479Z,18.985886
2022-10-05T21:50:30.314Z,18.46419
2022-10-05T21:55:31.873Z,18.768284
2022-10-05T22:00:33.569Z,19.020746
2022-10-05T22:05:35.488Z,18.888782
2022-10-05T22:10:37.269Z,18.69969
2022-10-05T22:15:39.088Z,18.45191
2022-10-05T22:20:40.991Z,18.473458
2022-10-05T22:25:42.724Z,18.487136
2022-10-05T22:30:44.494Z,18.154356
2022-10-05T22:35:46.549Z,18.486254
2022-10-05T22:40:48.212Z,18.456768
2022-10-05T22:45:49.978Z,18.440796
2022-10-05T22:50:51.736Z,17.954504
2022-10-05T22:55:53.459Z,18.325862
2022-10-05T23:00:58.536Z,17.658972
2022-10-05T23:06:00.456Z,17.675744
2022-10-05T23:11:01.890Z,17.096242
2022-10-05T23:16:03.548Z,17.380036
2022-10-05T23:21:06.286Z,17.624804
2022-10-05T23:26:07.928Z,17.503166
2022-10-05T23:31:09.683Z,17.460178
2022-10-05T23:36:11.497Z,17.194662
2022-10-05T23:41:13.255Z,17.195802
2022-10-05T23:46:15.132Z,17.565044
2022-10-05T23:51:17.182Z,17.082822
2022-10-05T23:56:18.946Z,16.72312
